PWSweather.com
Personal Weather Stations
Station Observations
KMAROCK
Pebble Beach, Rockport, MA 01966

Pebble BeachRockport, MA 01966

Lat: 42.63577271, Lon: -70.597377

Elevation: 20

Station Type: Davis Vantage Pro2

http://weather-rockport.keneli.org

High Low Average
Temperature 43.0°F6.1°C 33.5°F0.8°C 38.4°F3.6°C
Dew Point 41.4°F5.2°C 32.2°F0.1°C 35.9°F2.2°C
Winds 32.0 mph 51.5 kmh 3.0 mph 4.8 kmh 15.0 mph SW24.1 kmh SW
Wind Gusts 35.0 mph56.3 kmh 6.0 mph9.7 kmh 20.0 mph32.2 kmh
Humidity 97% 79% 91%
Pressure 30.10 in1019.3 mb 29.62 in1003.0 mb -
Precipitation 0.18 in4.6 mm - -
Hour Temp Dew Point Humidity Winds Wind Gusts Pressure Precip Precip Rate Daily Precip Total
12:00 AM 33.5°F0.8°C 32.2°F0.1°C 95% 26.0 mph SSW41.8 kmh SSW 34.0 mph54.7 kmh 30.10 in1019.3 mb 0.08 in2.0 mm 0.00 in/hr0.0 mm/hr 0.09 in2.3 mm
12:05 AM 33.6°F0.9°C 32.5°F0.3°C 96% 28.0 mph SW45.1 kmh SW 34.0 mph54.7 kmh 30.09 in1019.0 mb 0.07 in1.8 mm 0.00 in/hr0.0 mm/hr 0.08 in2.0 mm
12:10 AM 33.7°F0.9°C 32.6°F0.3°C 96% 32.0 mph SSW51.5 kmh SSW 34.0 mph54.7 kmh 30.09 in1019.0 mb 0.08 in2.0 mm 0.12 in/hr3.0 mm/hr 0.01 in0.3 mm
12:15 AM 33.9°F1.1°C 32.8°F0.4°C 96% 27.0 mph SW43.5 kmh SW 35.0 mph56.3 kmh 30.08 in1018.6 mb 0.09 in2.3 mm 0.12 in/hr3.0 mm/hr 0.02 in0.5 mm
12:20 AM 33.9°F1.1°C 32.8°F0.4°C 96% 31.0 mph SSW49.9 kmh SSW 32.0 mph51.5 kmh 30.08 in1018.6 mb 0.08 in2.0 mm 0.00 in/hr0.0 mm/hr 0.02 in0.5 mm
12:25 AM 33.9°F1.1°C 32.8°F0.4°C 96% 24.0 mph SW38.6 kmh SW 33.0 mph53.1 kmh 30.08 in1018.6 mb 0.09 in2.3 mm 0.12 in/hr3.0 mm/hr 0.03 in0.8 mm
12:30 AM 34.1°F1.2°C 33.0°F0.6°C 96% 27.0 mph SW43.5 kmh SW 34.0 mph54.7 kmh 30.07 in1018.3 mb 0.09 in2.3 mm 0.00 in/hr0.0 mm/hr 0.03 in0.8 mm
12:35 AM 34.1°F1.2°C 33.0°F0.6°C 96% 25.0 mph SW40.2 kmh SW 32.0 mph51.5 kmh 30.07 in1018.3 mb 0.07 in1.8 mm 0.00 in/hr0.0 mm/hr 0.03 in0.8 mm
12:40 AM 34.2°F1.2°C 33.1°F0.6°C 96% 27.0 mph SW43.5 kmh SW 34.0 mph54.7 kmh 30.07 in1018.3 mb 0.07 in1.8 mm 0.00 in/hr0.0 mm/hr 0.04 in1.0 mm
12:45 AM 34.3°F1.3°C 33.2°F0.7°C 96% 27.0 mph SW43.5 kmh SW 34.0 mph54.7 kmh 30.07 in1018.3 mb 0.06 in1.5 mm 0.00 in/hr0.0 mm/hr 0.04 in1.0 mm
12:50 AM 34.4°F1.3°C 33.3°F0.7°C 96% 27.0 mph SW43.5 kmh SW 31.0 mph49.9 kmh 30.07 in1018.3 mb 0.07 in1.8 mm 0.12 in/hr3.0 mm/hr 0.05 in1.3 mm
12:55 AM 34.4°F1.3°C 33.3°F0.7°C 96% 25.0 mph SSW40.2 kmh SSW 33.0 mph53.1 kmh 30.06 in1017.9 mb 0.06 in1.5 mm 0.00 in/hr0.0 mm/hr 0.05 in1.3 mm
01:00 AM 34.4°F1.3°C 33.3°F0.7°C 96% 25.0 mph SSW40.2 kmh SSW 30.0 mph48.3 kmh 30.06 in1017.9 mb 0.06 in1.5 mm 0.00 in/hr0.0 mm/hr 0.06 in1.5 mm
01:05 AM 34.4°F1.3°C 33.3°F0.7°C 96% 28.0 mph SW45.1 kmh SW 30.0 mph48.3 kmh 30.05 in1017.6 mb 0.06 in1.5 mm 0.00 in/hr0.0 mm/hr 0.06 in1.5 mm
01:10 AM 34.4°F1.3°C 33.3°F0.7°C 96% 19.0 mph SW30.6 kmh SW 32.0 mph51.5 kmh 30.05 in1017.6 mb 0.06 in1.5 mm 0.00 in/hr0.0 mm/hr 0.07 in1.8 mm
01:15 AM 34.5°F1.4°C 33.4°F0.8°C 96% 23.0 mph SW37.0 kmh SW 29.0 mph46.7 kmh 30.05 in1017.6 mb 0.06 in1.5 mm 0.00 in/hr0.0 mm/hr 0.08 in2.0 mm
01:20 AM 34.5°F1.4°C 33.4°F0.8°C 96% 22.0 mph SSW35.4 kmh SSW 29.0 mph46.7 kmh 30.05 in1017.6 mb 0.06 in1.5 mm 0.00 in/hr0.0 mm/hr 0.08 in2.0 mm
01:25 AM 34.6°F1.4°C 33.5°F0.8°C 96% 20.0 mph SW32.2 kmh SW 30.0 mph48.3 kmh 30.05 in1017.6 mb 0.05 in1.3 mm 0.00 in/hr0.0 mm/hr 0.08 in2.0 mm
01:30 AM 34.6°F1.4°C 33.5°F0.8°C 96% 28.0 mph SW45.1 kmh SW 29.0 mph46.7 kmh 30.04 in1017.3 mb 0.06 in1.5 mm 0.12 in/hr3.0 mm/hr 0.09 in2.3 mm
01:35 AM 34.8°F1.6°C 34.0°F1.1°C 97% 28.0 mph SW45.1 kmh SW 29.0 mph46.7 kmh 30.04 in1017.3 mb 0.06 in1.5 mm 0.00 in/hr0.0 mm/hr 0.09 in2.3 mm
01:40 AM 35.1°F1.7°C 34.0°F1.1°C 96% 24.0 mph SW38.6 kmh SW 32.0 mph51.5 kmh 30.04 in1017.3 mb 0.05 in1.3 mm 0.00 in/hr0.0 mm/hr 0.09 in2.3 mm
01:45 AM 35.3°F1.8°C 34.5°F1.4°C 97% 29.0 mph SW46.7 kmh SW 31.0 mph49.9 kmh 30.04 in1017.3 mb 0.05 in1.3 mm 0.00 in/hr0.0 mm/hr 0.09 in2.3 mm
01:50 AM 35.5°F1.9°C 34.4°F1.3°C 96% 26.0 mph SW41.8 kmh SW 31.0 mph49.9 kmh 30.04 in1017.3 mb 0.04 in1.0 mm 0.00 in/hr0.0 mm/hr 0.09 in2.3 mm
01:55 AM 35.6°F2.0°C 34.5°F1.4°C 96% 19.0 mph S30.6 kmh S 30.0 mph48.3 kmh 30.03 in1016.9 mb 0.04 in1.0 mm 0.00 in/hr0.0 mm/hr 0.09 in2.3 mm
02:00 AM 35.7°F2.1°C 34.6°F1.4°C 96% 19.0 mph SW30.6 kmh SW 30.0 mph48.3 kmh 30.03 in1016.9 mb 0.03 in0.8 mm 0.00 in/hr0.0 mm/hr 0.09 in2.3 mm
02:05 AM 35.7°F2.1°C 34.6°F1.4°C 96% 22.0 mph WSW35.4 kmh WSW 28.0 mph45.1 kmh 30.03 in1016.9 mb 0.03 in0.8 mm 0.00 in/hr0.0 mm/hr 0.09 in2.3 mm
02:10 AM 35.5°F1.9°C 34.2°F1.2°C 95% 23.0 mph SW37.0 kmh SW 27.0 mph43.5 kmh 30.03 in1016.9 mb 0.02 in0.5 mm 0.00 in/hr0.0 mm/hr 0.09 in2.3 mm
02:15 AM 35.5°F1.9°C 34.2°F1.2°C 95% 20.0 mph SW32.2 kmh SW 28.0 mph45.1 kmh 30.03 in1016.9 mb 0.01 in0.3 mm 0.00 in/hr0.0 mm/hr 0.09 in2.3 mm
02:20 AM 35.6°F2.0°C 34.3°F1.3°C 95% 24.0 mph SW38.6 kmh SW 29.0 mph46.7 kmh 30.03 in1016.9 mb 0.01 in0.3 mm 0.00 in/hr0.0 mm/hr 0.09 in2.3 mm
02:25 AM 35.6°F2.0°C 34.3°F1.3°C 95% 24.0 mph SW38.6 kmh SW 32.0 mph51.5 kmh 30.03 in1016.9 mb 0.01 in0.3 mm 0.00 in/hr0.0 mm/hr 0.09 in2.3 mm
02:30 AM 35.7°F2.1°C 34.1°F1.2°C 94% 26.0 mph SW41.8 kmh SW 27.0 mph43.5 kmh 30.03 in1016.9 mb 0.00 in0.0 mm 0.00 in/hr0.0 mm/hr 0.09 in2.3 mm
02:35 AM 35.8°F2.1°C 34.2°F1.2°C 94% 31.0 mph SW49.9 kmh SW 31.0 mph49.9 kmh 30.02 in1016.6 mb 0.00 in0.0 mm 0.00 in/hr0.0 mm/hr 0.09 in2.3 mm
02:40 AM 35.7°F2.1°C 34.1°F1.2°C 94% 22.0 mph SW35.4 kmh SW 30.0 mph48.3 kmh 30.02 in1016.6 mb 0.00 in0.0 mm 0.00 in/hr0.0 mm/hr 0.09 in2.3 mm
02:45 AM 35.7°F2.1°C 34.1°F1.2°C 94% 20.0 mph SW32.2 kmh SW 27.0 mph43.5 kmh 30.02 in1016.6 mb 0.00 in0.0 mm 0.00 in/hr0.0 mm/hr 0.09 in2.3 mm
02:50 AM 35.8°F2.1°C 34.2°F1.2°C 94% 21.0 mph SW33.8 kmh SW 28.0 mph45.1 kmh 30.01 in1016.3 mb 0.00 in0.0 mm 0.00 in/hr0.0 mm/hr 0.09 in2.3 mm
02:55 AM 35.8°F2.1°C 33.9°F1.1°C 93% 21.0 mph SW33.8 kmh SW 25.0 mph40.2 kmh 30.01 in1016.3 mb 0.00 in0.0 mm 0.00 in/hr0.0 mm/hr 0.09 in2.3 mm
03:00 AM 35.8°F2.1°C 33.9°F1.1°C 93% 20.0 mph SW32.2 kmh SW 24.0 mph38.6 kmh 30.01 in1016.3 mb 0.00 in0.0 mm 0.00 in/hr0.0 mm/hr 0.09 in2.3 mm
03:05 AM 35.9°F2.2°C 34.0°F1.1°C 93% 16.0 mph W25.7 kmh W 24.0 mph38.6 kmh 30.01 in1016.3 mb 0.00 in0.0 mm 0.00 in/hr0.0 mm/hr 0.09 in2.3 mm
03:10 AM 36.0°F2.2°C 34.1°F1.2°C 93% 17.0 mph SW27.4 kmh SW 27.0 mph43.5 kmh 30.01 in1016.3 mb 0.00 in0.0 mm 0.00 in/hr0.0 mm/hr 0.09 in2.3 mm
03:15 AM 36.0°F2.2°C 33.9°F1.1°C 92% 12.0 mph SW19.3 kmh SW 25.0 mph40.2 kmh 30.01 in1016.3 mb 0.00 in0.0 mm 0.00 in/hr0.0 mm/hr 0.09 in2.3 mm
03:20 AM 36.1°F2.3°C 34.0°F1.1°C 92% 20.0 mph SW32.2 kmh SW 24.0 mph38.6 kmh 30.00 in1015.9 mb 0.00 in0.0 mm 0.00 in/hr0.0 mm/hr 0.09 in2.3 mm
03:25 AM 36.2°F2.3°C 34.1°F1.2°C 92% 19.0 mph SW30.6 kmh SW 24.0 mph38.6 kmh 30.00 in1015.9 mb 0.00 in0.0 mm 0.00 in/hr0.0 mm/hr 0.09 in2.3 mm
03:30 AM 36.4°F2.4°C 34.3°F1.3°C 92% 21.0 mph SSW33.8 kmh SSW 25.0 mph40.2 kmh 30.00 in1015.9 mb 0.00 in0.0 mm 0.00 in/hr0.0 mm/hr 0.09 in2.3 mm
03:35 AM 36.6°F2.6°C 34.2°F1.2°C 91% 20.0 mph SW32.2 kmh SW 26.0 mph41.8 kmh 30.00 in1015.9 mb 0.00 in0.0 mm 0.00 in/hr0.0 mm/hr 0.09 in2.3 mm
03:40 AM 36.5°F2.5°C 34.1°F1.2°C 91% 19.0 mph SW30.6 kmh SW 26.0 mph41.8 kmh 30.00 in1015.9 mb 0.00 in0.0 mm 0.00 in/hr0.0 mm/hr 0.09 in2.3 mm
03:45 AM 36.6°F2.6°C 34.2°F1.2°C 91% 24.0 mph SW38.6 kmh SW 25.0 mph40.2 kmh 30.00 in1015.9 mb 0.00 in0.0 mm 0.00 in/hr0.0 mm/hr 0.09 in2.3 mm
03:50 AM 36.7°F2.6°C 34.0°F1.1°C 90% 20.0 mph SW32.2 kmh SW 26.0 mph41.8 kmh 29.99 in1015.6 mb 0.00 in0.0 mm 0.00 in/hr0.0 mm/hr 0.09 in2.3 mm
03:55 AM 36.5°F2.5°C 33.8°F1.0°C 90% 23.0 mph SW37.0 kmh SW 26.0 mph41.8 kmh 29.99 in1015.6 mb 0.01 in0.3 mm 0.12 in/hr3.0 mm/hr 0.10 in2.5 mm
04:00 AM 36.3°F2.4°C 33.9°F1.1°C 91% 18.0 mph SSW29.0 kmh SSW 24.0 mph38.6 kmh 29.99 in1015.6 mb 0.01 in0.3 mm 0.00 in/hr0.0 mm/hr 0.10 in2.5 mm
04:05 AM 36.1°F2.3°C 33.7°F0.9°C 91% 17.0 mph SW27.4 kmh SW 25.0 mph40.2 kmh 29.99 in1015.6 mb 0.01 in0.3 mm 0.00 in/hr0.0 mm/hr 0.10 in2.5 mm
04:10 AM 36.1°F2.3°C 33.7°F0.9°C 91% 14.0 mph WSW22.5 kmh WSW 24.0 mph38.6 kmh 29.99 in1015.6 mb 0.01 in0.3 mm 0.00 in/hr0.0 mm/hr 0.10 in2.5 mm
04:15 AM 36.0°F2.2°C 33.9°F1.1°C 92% 18.0 mph SW29.0 kmh SW 22.0 mph35.4 kmh 29.99 in1015.6 mb 0.01 in0.3 mm 0.00 in/hr0.0 mm/hr 0.10 in2.5 mm
04:20 AM 35.8°F2.1°C 33.7°F0.9°C 92% 13.0 mph SW20.9 kmh SW 24.0 mph38.6 kmh 29.98 in1015.2 mb 0.01 in0.3 mm 0.00 in/hr0.0 mm/hr 0.10 in2.5 mm
04:25 AM 35.8°F2.1°C 33.7°F0.9°C 92% 13.0 mph SW20.9 kmh SW 22.0 mph35.4 kmh 29.98 in1015.2 mb 0.01 in0.3 mm 0.00 in/hr0.0 mm/hr 0.10 in2.5 mm
04:30 AM 35.8°F2.1°C 33.7°F0.9°C 92% 13.0 mph SW20.9 kmh SW 20.0 mph32.2 kmh 29.98 in1015.2 mb 0.01 in0.3 mm 0.00 in/hr0.0 mm/hr 0.10 in2.5 mm
04:35 AM 35.7°F2.1°C 33.6°F0.9°C 92% 12.0 mph SW19.3 kmh SW 17.0 mph27.4 kmh 29.98 in1015.2 mb 0.01 in0.3 mm 0.00 in/hr0.0 mm/hr 0.10 in2.5 mm
04:40 AM 35.8°F2.1°C 33.7°F0.9°C 92% 15.0 mph SW24.1 kmh SW 17.0 mph27.4 kmh 29.98 in1015.2 mb 0.01 in0.3 mm 0.00 in/hr0.0 mm/hr 0.10 in2.5 mm
04:45 AM 35.8°F2.1°C 33.7°F0.9°C 92% 10.0 mph SW16.1 kmh SW 17.0 mph27.4 kmh 29.98 in1015.2 mb 0.01 in0.3 mm 0.00 in/hr0.0 mm/hr 0.10 in2.5 mm
04:50 AM 35.7°F2.1°C 33.6°F0.9°C 92% 10.0 mph SW16.1 kmh SW 15.0 mph24.1 kmh 29.98 in1015.2 mb 0.02 in0.5 mm 0.12 in/hr3.0 mm/hr 0.11 in2.8 mm
04:55 AM 35.5°F1.9°C 33.6°F0.9°C 93% 11.0 mph SW17.7 kmh SW 14.0 mph22.5 kmh 29.98 in1015.2 mb 0.01 in0.3 mm 0.00 in/hr0.0 mm/hr 0.11 in2.8 mm
05:00 AM 35.3°F1.8°C 33.2°F0.7°C 92% 10.0 mph SW16.1 kmh SW 13.0 mph20.9 kmh 29.97 in1014.9 mb 0.01 in0.3 mm 0.00 in/hr0.0 mm/hr 0.11 in2.8 mm
05:05 AM 35.2°F1.8°C 33.3°F0.7°C 93% 10.0 mph SW16.1 kmh SW 18.0 mph29.0 kmh 29.98 in1015.2 mb 0.01 in0.3 mm 0.00 in/hr0.0 mm/hr 0.11 in2.8 mm
05:11 AM 35.2°F1.8°C 33.3°F0.7°C 93% 12.0 mph SW19.3 kmh SW 14.0 mph22.5 kmh 29.97 in1014.9 mb 0.01 in0.3 mm 0.00 in/hr0.0 mm/hr 0.11 in2.8 mm
05:15 AM 35.0°F1.7°C 33.1°F0.6°C 93% 13.0 mph SW20.9 kmh SW 16.0 mph25.7 kmh 29.97 in1014.9 mb 0.02 in0.5 mm 0.15 in/hr3.8 mm/hr 0.12 in3.0 mm
05:20 AM 35.1°F1.7°C 33.5°F0.8°C 94% 15.0 mph SW24.1 kmh SW 18.0 mph29.0 kmh 29.97 in1014.9 mb 0.02 in0.5 mm 0.00 in/hr0.0 mm/hr 0.12 in3.0 mm
05:25 AM 35.1°F1.7°C 33.5°F0.8°C 94% 13.0 mph SW20.9 kmh SW 15.0 mph24.1 kmh 29.96 in1014.6 mb 0.02 in0.5 mm 0.00 in/hr0.0 mm/hr 0.12 in3.0 mm
05:30 AM 35.2°F1.8°C 33.6°F0.9°C 94% 6.0 mph SW9.7 kmh SW 17.0 mph27.4 kmh 29.97 in1014.9 mb 0.02 in0.5 mm 0.00 in/hr0.0 mm/hr 0.12 in3.0 mm
05:35 AM 35.2°F1.8°C 33.6°F0.9°C 94% 10.0 mph SW16.1 kmh SW 13.0 mph20.9 kmh 29.97 in1014.9 mb 0.02 in0.5 mm 0.00 in/hr0.0 mm/hr 0.12 in3.0 mm
05:40 AM 35.2°F1.8°C 33.6°F0.9°C 94% 9.0 mph SW14.5 kmh SW 14.0 mph22.5 kmh 29.96 in1014.6 mb 0.02 in0.5 mm 0.00 in/hr0.0 mm/hr 0.12 in3.0 mm
05:45 AM 35.3°F1.8°C 33.7°F0.9°C 94% 10.0 mph SW16.1 kmh SW 13.0 mph20.9 kmh 29.96 in1014.6 mb 0.02 in0.5 mm 0.00 in/hr0.0 mm/hr 0.12 in3.0 mm
05:50 AM 35.4°F1.9°C 33.8°F1.0°C 94% 13.0 mph SW20.9 kmh SW 14.0 mph22.5 kmh 29.96 in1014.6 mb 0.01 in0.3 mm 0.00 in/hr0.0 mm/hr 0.12 in3.0 mm
05:55 AM 35.5°F1.9°C 33.9°F1.1°C 94% 7.0 mph SW11.3 kmh SW 13.0 mph20.9 kmh 29.96 in1014.6 mb 0.01 in0.3 mm 0.00 in/hr0.0 mm/hr 0.12 in3.0 mm
06:00 AM 35.6°F2.0°C 34.0°F1.1°C 94% 9.0 mph WSW14.5 kmh WSW 13.0 mph20.9 kmh 29.96 in1014.6 mb 0.01 in0.3 mm 0.00 in/hr0.0 mm/hr 0.12 in3.0 mm
06:05 AM 35.7°F2.1°C 34.1°F1.2°C 94% 4.0 mph WSW6.4 kmh WSW 11.0 mph17.7 kmh 29.96 in1014.6 mb 0.01 in0.3 mm 0.00 in/hr0.0 mm/hr 0.12 in3.0 mm
06:10 AM 35.8°F2.1°C 34.2°F1.2°C 94% 9.0 mph WSW14.5 kmh WSW 13.0 mph20.9 kmh 29.95 in1014.2 mb 0.01 in0.3 mm 0.00 in/hr0.0 mm/hr 0.12 in3.0 mm
06:15 AM 35.9°F2.2°C 34.0°F1.1°C 93% 11.0 mph SW17.7 kmh SW 15.0 mph24.1 kmh 29.95 in1014.2 mb 0.01 in0.3 mm 0.00 in/hr0.0 mm/hr 0.13 in3.3 mm
06:20 AM 35.8°F2.1°C 33.9°F1.1°C 93% 11.0 mph WSW17.7 kmh WSW 15.0 mph24.1 kmh 29.95 in1014.2 mb 0.01 in0.3 mm 0.00 in/hr0.0 mm/hr 0.13 in3.3 mm
06:25 AM 36.0°F2.2°C 34.1°F1.2°C 93% 11.0 mph WSW17.7 kmh WSW 15.0 mph24.1 kmh 29.95 in1014.2 mb 0.01 in0.3 mm 0.00 in/hr0.0 mm/hr 0.13 in3.3 mm
06:30 AM 36.0°F2.2°C 34.4°F1.3°C 94% 14.0 mph SW22.5 kmh SW 16.0 mph25.7 kmh 29.95 in1014.2 mb 0.01 in0.3 mm 0.00 in/hr0.0 mm/hr 0.13 in3.3 mm
06:35 AM 36.0°F2.2°C 34.4°F1.3°C 94% 11.0 mph SW17.7 kmh SW 17.0 mph27.4 kmh 29.95 in1014.2 mb 0.02 in0.5 mm 0.12 in/hr3.0 mm/hr 0.14 in3.6 mm
06:40 AM 35.9°F2.2°C 34.0°F1.1°C 93% 11.0 mph SW17.7 kmh SW 17.0 mph27.4 kmh 29.95 in1014.2 mb 0.02 in0.5 mm 0.00 in/hr0.0 mm/hr 0.14 in3.6 mm
06:45 AM 35.8°F2.1°C 34.2°F1.2°C 94% 11.0 mph SW17.7 kmh SW 16.0 mph25.7 kmh 29.95 in1014.2 mb 0.02 in0.5 mm 0.00 in/hr0.0 mm/hr 0.14 in3.6 mm
06:50 AM 35.7°F2.1°C 33.8°F1.0°C 93% 12.0 mph SW19.3 kmh SW 17.0 mph27.4 kmh 29.95 in1014.2 mb 0.02 in0.5 mm 0.00 in/hr0.0 mm/hr 0.14 in3.6 mm
06:55 AM 35.9°F2.2°C 34.3°F1.3°C 94% 16.0 mph SW25.7 kmh SW 16.0 mph25.7 kmh 29.95 in1014.2 mb 0.02 in0.5 mm 0.00 in/hr0.0 mm/hr 0.14 in3.6 mm
07:00 AM 35.9°F2.2°C 34.3°F1.3°C 94% 8.0 mph SW12.9 kmh SW 16.0 mph25.7 kmh 29.95 in1014.2 mb 0.02 in0.5 mm 0.00 in/hr0.0 mm/hr 0.14 in3.6 mm
07:05 AM 35.9°F2.2°C 34.0°F1.1°C 93% 14.0 mph WSW22.5 kmh WSW 15.0 mph24.1 kmh 29.95 in1014.2 mb 0.02 in0.5 mm 0.00 in/hr0.0 mm/hr 0.14 in3.6 mm
07:10 AM 35.9°F2.2°C 34.0°F1.1°C 93% 8.0 mph W12.9 kmh W 17.0 mph27.4 kmh 29.94 in1013.9 mb 0.02 in0.5 mm 0.00 in/hr0.0 mm/hr 0.14 in3.6 mm
07:15 AM 36.0°F2.2°C 34.4°F1.3°C 94% 9.0 mph SW14.5 kmh SW 15.0 mph24.1 kmh 29.94 in1013.9 mb 0.02 in0.5 mm 0.00 in/hr0.0 mm/hr 0.14 in3.6 mm
07:20 AM 36.0°F2.2°C 34.4°F1.3°C 94% 8.0 mph SW12.9 kmh SW 16.0 mph25.7 kmh 29.94 in1013.9 mb 0.01 in0.3 mm 0.00 in/hr0.0 mm/hr 0.14 in3.6 mm
07:25 AM 36.1°F2.3°C 34.5°F1.4°C 94% 15.0 mph SW24.1 kmh SW 16.0 mph25.7 kmh 29.94 in1013.9 mb 0.01 in0.3 mm 0.00 in/hr0.0 mm/hr 0.14 in3.6 mm
07:30 AM 36.1°F2.3°C 34.2°F1.2°C 93% 13.0 mph SW20.9 kmh SW 15.0 mph24.1 kmh 29.93 in1013.5 mb 0.01 in0.3 mm 0.00 in/hr0.0 mm/hr 0.14 in3.6 mm
07:35 AM 36.0°F2.2°C 34.1°F1.2°C 93% 8.0 mph WSW12.9 kmh WSW 15.0 mph24.1 kmh 29.93 in1013.5 mb 0.00 in0.0 mm 0.00 in/hr0.0 mm/hr 0.14 in3.6 mm
07:40 AM 36.1°F2.3°C 34.5°F1.4°C 94% 13.0 mph WSW20.9 kmh WSW 15.0 mph24.1 kmh 29.93 in1013.5 mb 0.00 in0.0 mm 0.00 in/hr0.0 mm/hr 0.14 in3.6 mm
07:45 AM 36.2°F2.3°C 34.3°F1.3°C 93% 7.0 mph W11.3 kmh W 16.0 mph25.7 kmh 29.93 in1013.5 mb 0.00 in0.0 mm 0.00 in/hr0.0 mm/hr 0.14 in3.6 mm
07:50 AM 36.3°F2.4°C 34.4°F1.3°C 93% 11.0 mph SW17.7 kmh SW 13.0 mph20.9 kmh 29.93 in1013.5 mb 0.00 in0.0 mm 0.00 in/hr0.0 mm/hr 0.14 in3.6 mm
07:55 AM 36.2°F2.3°C 34.3°F1.3°C 93% 13.0 mph SW20.9 kmh SW 14.0 mph22.5 kmh 29.93 in1013.5 mb 0.00 in0.0 mm 0.00 in/hr0.0 mm/hr 0.14 in3.6 mm
08:00 AM 36.2°F2.3°C 34.3°F1.3°C 93% 12.0 mph SW19.3 kmh SW 15.0 mph24.1 kmh 29.93 in1013.5 mb 0.00 in0.0 mm 0.00 in/hr0.0 mm/hr 0.14 in3.6 mm
08:05 AM 36.3°F2.4°C 34.4°F1.3°C 93% 13.0 mph SW20.9 kmh SW 16.0 mph25.7 kmh 29.94 in1013.9 mb 0.00 in0.0 mm 0.00 in/hr0.0 mm/hr 0.14 in3.6 mm
08:10 AM 36.4°F2.4°C 34.5°F1.4°C 93% 13.0 mph SW20.9 kmh SW 15.0 mph24.1 kmh 29.93 in1013.5 mb 0.00 in0.0 mm 0.00 in/hr0.0 mm/hr 0.14 in3.6 mm
08:15 AM 36.4°F2.4°C 34.5°F1.4°C 93% 11.0 mph SW17.7 kmh SW 16.0 mph25.7 kmh 29.93 in1013.5 mb 0.00 in0.0 mm 0.00 in/hr0.0 mm/hr 0.14 in3.6 mm
08:20 AM 36.5°F2.5°C 34.6°F1.4°C 93% 13.0 mph WSW20.9 kmh WSW 17.0 mph27.4 kmh 29.93 in1013.5 mb 0.00 in0.0 mm 0.00 in/hr0.0 mm/hr 0.14 in3.6 mm
08:25 AM 36.6°F2.6°C 34.7°F1.5°C 93% 12.0 mph SW19.3 kmh SW 17.0 mph27.4 kmh 29.93 in1013.5 mb 0.00 in0.0 mm 0.00 in/hr0.0 mm/hr 0.14 in3.6 mm
08:30 AM 36.6°F2.6°C 34.7°F1.5°C 93% 16.0 mph SW25.7 kmh SW 16.0 mph25.7 kmh 29.92 in1013.2 mb 0.01 in0.3 mm 0.12 in/hr3.0 mm/hr 0.15 in3.8 mm
08:35 AM 36.5°F2.5°C 34.6°F1.4°C 93% 12.0 mph SW19.3 kmh SW 18.0 mph29.0 kmh 29.92 in1013.2 mb 0.01 in0.3 mm 0.00 in/hr0.0 mm/hr 0.15 in3.8 mm
08:40 AM 36.6°F2.6°C 34.7°F1.5°C 93% 15.0 mph SW24.1 kmh SW 16.0 mph25.7 kmh 29.92 in1013.2 mb 0.01 in0.3 mm 0.00 in/hr0.0 mm/hr 0.15 in3.8 mm
08:45 AM 36.7°F2.6°C 34.5°F1.4°C 92% 14.0 mph SSW22.5 kmh SSW 18.0 mph29.0 kmh 29.91 in1012.9 mb 0.01 in0.3 mm 0.00 in/hr0.0 mm/hr 0.15 in3.8 mm
08:50 AM 36.7°F2.6°C 34.8°F1.6°C 93% 10.0 mph SW16.1 kmh SW 18.0 mph29.0 kmh 29.92 in1013.2 mb 0.01 in0.3 mm 0.00 in/hr0.0 mm/hr 0.15 in3.8 mm
08:55 AM 36.8°F2.7°C 34.6°F1.4°C 92% 10.0 mph SW16.1 kmh SW 16.0 mph25.7 kmh 29.92 in1013.2 mb 0.01 in0.3 mm 0.00 in/hr0.0 mm/hr 0.15 in3.8 mm
09:00 AM 36.8°F2.7°C 34.6°F1.4°C 92% 14.0 mph SW22.5 kmh SW 17.0 mph27.4 kmh 29.92 in1013.2 mb 0.01 in0.3 mm 0.00 in/hr0.0 mm/hr 0.15 in3.8 mm
09:05 AM 37.0°F2.8°C 34.8°F1.6°C 92% 10.0 mph SW16.1 kmh SW 16.0 mph25.7 kmh 29.92 in1013.2 mb 0.01 in0.3 mm 0.00 in/hr0.0 mm/hr 0.15 in3.8 mm
09:10 AM 37.1°F2.8°C 34.9°F1.6°C 92% 10.0 mph WSW16.1 kmh WSW 16.0 mph25.7 kmh 29.92 in1013.2 mb 0.01 in0.3 mm 0.00 in/hr0.0 mm/hr 0.15 in3.8 mm
09:15 AM 37.4°F3.0°C 35.2°F1.8°C 92% 14.0 mph SW22.5 kmh SW 19.0 mph30.6 kmh 29.91 in1012.9 mb 0.01 in0.3 mm 0.00 in/hr0.0 mm/hr 0.15 in3.8 mm
09:20 AM 37.4°F3.0°C 35.2°F1.8°C 92% 13.0 mph SW20.9 kmh SW 16.0 mph25.7 kmh 29.91 in1012.9 mb 0.01 in0.3 mm 0.00 in/hr0.0 mm/hr 0.15 in3.8 mm
09:25 AM 37.5°F3.1°C 35.1°F1.7°C 91% 11.0 mph SW17.7 kmh SW 18.0 mph29.0 kmh 29.92 in1013.2 mb 0.01 in0.3 mm 0.00 in/hr0.0 mm/hr 0.15 in3.8 mm
09:30 AM 37.6°F3.1°C 35.2°F1.8°C 91% 15.0 mph SW24.1 kmh SW 19.0 mph30.6 kmh 29.91 in1012.9 mb 0.00 in0.0 mm 0.00 in/hr0.0 mm/hr 0.15 in3.8 mm
09:35 AM 38.0°F3.3°C 35.6°F2.0°C 91% 15.0 mph SW24.1 kmh SW 17.0 mph27.4 kmh 29.91 in1012.9 mb 0.00 in0.0 mm 0.00 in/hr0.0 mm/hr 0.15 in3.8 mm
09:40 AM 38.2°F3.4°C 35.8°F2.1°C 91% 16.0 mph SW25.7 kmh SW 18.0 mph29.0 kmh 29.91 in1012.9 mb 0.01 in0.3 mm 0.12 in/hr3.0 mm/hr 0.16 in4.1 mm
09:45 AM 38.3°F3.5°C 35.6°F2.0°C 90% 14.0 mph SW22.5 kmh SW 23.0 mph37.0 kmh 29.91 in1012.9 mb 0.01 in0.3 mm 0.00 in/hr0.0 mm/hr 0.16 in4.1 mm
09:50 AM 38.2°F3.4°C 35.2°F1.8°C 89% 15.0 mph SW24.1 kmh SW 21.0 mph33.8 kmh 29.90 in1012.5 mb 0.01 in0.3 mm 0.00 in/hr0.0 mm/hr 0.16 in4.1 mm
09:55 AM 38.1°F3.4°C 35.1°F1.7°C 89% 18.0 mph SW29.0 kmh SW 21.0 mph33.8 kmh 29.90 in1012.5 mb 0.01 in0.3 mm 0.00 in/hr0.0 mm/hr 0.16 in4.1 mm
10:00 AM 38.2°F3.4°C 35.2°F1.8°C 89% 14.0 mph WSW22.5 kmh WSW 20.0 mph32.2 kmh 29.91 in1012.9 mb 0.01 in0.3 mm 0.00 in/hr0.0 mm/hr 0.16 in4.1 mm
10:05 AM 38.1°F3.4°C 35.1°F1.7°C 89% 16.0 mph SW25.7 kmh SW 19.0 mph30.6 kmh 29.90 in1012.5 mb 0.01 in0.3 mm 0.00 in/hr0.0 mm/hr 0.16 in4.1 mm
10:10 AM 38.2°F3.4°C 35.2°F1.8°C 89% 13.0 mph SW20.9 kmh SW 19.0 mph30.6 kmh 29.90 in1012.5 mb 0.01 in0.3 mm 0.00 in/hr0.0 mm/hr 0.16 in4.1 mm
10:15 AM 38.1°F3.4°C 35.1°F1.7°C 89% 19.0 mph SW30.6 kmh SW 19.0 mph30.6 kmh 29.90 in1012.5 mb 0.01 in0.3 mm 0.00 in/hr0.0 mm/hr 0.16 in4.1 mm
10:20 AM 38.2°F3.4°C 35.2°F1.8°C 89% 12.0 mph WSW19.3 kmh WSW 18.0 mph29.0 kmh 29.90 in1012.5 mb 0.01 in0.3 mm 0.00 in/hr0.0 mm/hr 0.16 in4.1 mm
10:25 AM 38.2°F3.4°C 35.2°F1.8°C 89% 14.0 mph SW22.5 kmh SW 18.0 mph29.0 kmh 29.89 in1012.2 mb 0.01 in0.3 mm 0.00 in/hr0.0 mm/hr 0.16 in4.1 mm
10:30 AM 38.4°F3.6°C 35.4°F1.9°C 89% 17.0 mph SW27.4 kmh SW 17.0 mph27.4 kmh 29.89 in1012.2 mb 0.01 in0.3 mm 0.00 in/hr0.0 mm/hr 0.16 in4.1 mm
10:35 AM 38.8°F3.8°C 35.8°F2.1°C 89% 18.0 mph SW29.0 kmh SW 21.0 mph33.8 kmh 29.89 in1012.2 mb 0.01 in0.3 mm 0.00 in/hr0.0 mm/hr 0.16 in4.1 mm
10:40 AM 39.0°F3.9°C 35.7°F2.1°C 88% 15.0 mph SSW24.1 kmh SSW 20.0 mph32.2 kmh 29.88 in1011.9 mb 0.00 in0.0 mm 0.00 in/hr0.0 mm/hr 0.16 in4.1 mm
10:45 AM 39.3°F4.1°C 36.0°F2.2°C 88% 15.0 mph SSW24.1 kmh SSW 16.0 mph25.7 kmh 29.88 in1011.9 mb 0.00 in0.0 mm 0.00 in/hr0.0 mm/hr 0.16 in4.1 mm
10:50 AM 39.5°F4.2°C 35.9°F2.2°C 87% 17.0 mph SW27.4 kmh SW 20.0 mph32.2 kmh 29.88 in1011.9 mb 0.00 in0.0 mm 0.00 in/hr0.0 mm/hr 0.16 in4.1 mm
10:55 AM 39.6°F4.2°C 36.0°F2.2°C 87% 12.0 mph SW19.3 kmh SW 20.0 mph32.2 kmh 29.87 in1011.5 mb 0.00 in0.0 mm 0.00 in/hr0.0 mm/hr 0.16 in4.1 mm
11:00 AM 39.5°F4.2°C 35.9°F2.2°C 87% 10.0 mph SW16.1 kmh SW 18.0 mph29.0 kmh 29.88 in1011.9 mb 0.00 in0.0 mm 0.00 in/hr0.0 mm/hr 0.16 in4.1 mm
11:05 AM 39.8°F4.3°C 35.9°F2.2°C 86% 12.0 mph SW19.3 kmh SW 17.0 mph27.4 kmh 29.87 in1011.5 mb 0.00 in0.0 mm 0.00 in/hr0.0 mm/hr 0.16 in4.1 mm
11:10 AM 39.8°F4.3°C 35.9°F2.2°C 86% 17.0 mph SW27.4 kmh SW 17.0 mph27.4 kmh 29.86 in1011.2 mb 0.00 in0.0 mm 0.00 in/hr0.0 mm/hr 0.16 in4.1 mm
11:15 AM 40.2°F4.6°C 36.3°F2.4°C 86% 12.0 mph SW19.3 kmh SW 16.0 mph25.7 kmh 29.85 in1010.8 mb 0.00 in0.0 mm 0.00 in/hr0.0 mm/hr 0.16 in4.1 mm
11:20 AM 40.5°F4.7°C 36.6°F2.6°C 86% 4.0 mph WSW6.4 kmh WSW 15.0 mph24.1 kmh 29.85 in1010.8 mb 0.00 in0.0 mm 0.00 in/hr0.0 mm/hr 0.16 in4.1 mm
11:25 AM 41.0°F5.0°C 36.8°F2.7°C 85% 6.0 mph W9.7 kmh W 14.0 mph22.5 kmh 29.85 in1010.8 mb 0.00 in0.0 mm 0.00 in/hr0.0 mm/hr 0.16 in4.1 mm
11:30 AM 41.0°F5.0°C 36.5°F2.5°C 84% 10.0 mph SW16.1 kmh SW 16.0 mph25.7 kmh 29.85 in1010.8 mb 0.00 in0.0 mm 0.00 in/hr0.0 mm/hr 0.16 in4.1 mm
11:35 AM 41.0°F5.0°C 36.2°F2.3°C 83% 10.0 mph SW16.1 kmh SW 14.0 mph22.5 kmh 29.85 in1010.8 mb 0.00 in0.0 mm 0.00 in/hr0.0 mm/hr 0.16 in4.1 mm
11:40 AM 41.3°F5.2°C 36.8°F2.7°C 84% 8.0 mph WSW12.9 kmh WSW 15.0 mph24.1 kmh 29.85 in1010.8 mb 0.00 in0.0 mm 0.00 in/hr0.0 mm/hr 0.16 in4.1 mm
11:45 AM 41.6°F5.3°C 37.1°F2.8°C 84% 10.0 mph W16.1 kmh W 16.0 mph25.7 kmh 29.84 in1010.5 mb 0.00 in0.0 mm 0.00 in/hr0.0 mm/hr 0.16 in4.1 mm
11:50 AM 42.1°F5.6°C 37.3°F2.9°C 83% 9.0 mph W14.5 kmh W 13.0 mph20.9 kmh 29.84 in1010.5 mb 0.00 in0.0 mm 0.00 in/hr0.0 mm/hr 0.16 in4.1 mm
11:55 AM 41.9°F5.5°C 37.1°F2.8°C 83% 11.0 mph SW17.7 kmh SW 13.0 mph20.9 kmh 29.84 in1010.5 mb 0.00 in0.0 mm 0.00 in/hr0.0 mm/hr 0.16 in4.1 mm
12:00 PM 41.8°F5.4°C 36.7°F2.6°C 82% 7.0 mph W11.3 kmh W 14.0 mph22.5 kmh 29.84 in1010.5 mb 0.00 in0.0 mm 0.00 in/hr0.0 mm/hr 0.16 in4.1 mm
12:10 PM 42.3°F5.7°C 36.5°F2.5°C 80% 5.0 mph WSW8.0 kmh WSW 11.0 mph17.7 kmh 29.83 in1010.2 mb 0.00 in0.0 mm 0.00 in/hr0.0 mm/hr 0.16 in4.1 mm
12:15 PM 42.6°F5.9°C 36.8°F2.7°C 80% 5.0 mph W8.0 kmh W 9.0 mph14.5 kmh 29.83 in1010.2 mb 0.00 in0.0 mm 0.00 in/hr0.0 mm/hr 0.16 in4.1 mm
12:20 PM 43.0°F6.1°C 37.2°F2.9°C 80% 4.0 mph SW6.4 kmh SW 6.0 mph9.7 kmh 29.82 in1009.8 mb 0.00 in0.0 mm 0.00 in/hr0.0 mm/hr 0.16 in4.1 mm
12:25 PM 42.9°F6.1°C 36.8°F2.7°C 79% 8.0 mph SSW12.9 kmh SSW 12.0 mph19.3 kmh 29.82 in1009.8 mb 0.00 in0.0 mm 0.00 in/hr0.0 mm/hr 0.16 in4.1 mm
12:30 PM 42.5°F5.8°C 36.7°F2.6°C 80% 9.0 mph SSW14.5 kmh SSW 12.0 mph19.3 kmh 29.81 in1009.5 mb 0.00 in0.0 mm 0.00 in/hr0.0 mm/hr 0.16 in4.1 mm
12:35 PM 41.8°F5.4°C 36.7°F2.6°C 82% 11.0 mph SSW17.7 kmh SSW 14.0 mph22.5 kmh 29.81 in1009.5 mb 0.00 in0.0 mm 0.00 in/hr0.0 mm/hr 0.16 in4.1 mm
12:40 PM 41.5°F5.3°C 36.7°F2.6°C 83% 12.0 mph S19.3 kmh S 15.0 mph24.1 kmh 29.80 in1009.1 mb 0.00 in0.0 mm 0.00 in/hr0.0 mm/hr 0.16 in4.1 mm
12:46 PM 41.2°F5.1°C 36.4°F2.4°C 83% 14.0 mph SSW22.5 kmh SSW 17.0 mph27.4 kmh 29.80 in1009.1 mb 0.00 in0.0 mm 0.00 in/hr0.0 mm/hr 0.16 in4.1 mm
12:50 PM 41.3°F5.2°C 36.8°F2.7°C 84% 12.0 mph SSW19.3 kmh SSW 16.0 mph25.7 kmh 29.80 in1009.1 mb 0.00 in0.0 mm 0.00 in/hr0.0 mm/hr 0.16 in4.1 mm
12:55 PM 41.4°F5.2°C 36.9°F2.7°C 84% 13.0 mph SSW20.9 kmh SSW 16.0 mph25.7 kmh 29.80 in1009.1 mb 0.00 in0.0 mm 0.00 in/hr0.0 mm/hr 0.16 in4.1 mm
01:00 PM 41.3°F5.2°C 36.8°F2.7°C 84% 11.0 mph SSW17.7 kmh SSW 15.0 mph24.1 kmh 29.79 in1008.8 mb 0.00 in0.0 mm 0.00 in/hr0.0 mm/hr 0.16 in4.1 mm
01:05 PM 41.3°F5.2°C 36.8°F2.7°C 84% 13.0 mph SSW20.9 kmh SSW 14.0 mph22.5 kmh 29.79 in1008.8 mb 0.00 in0.0 mm 0.00 in/hr0.0 mm/hr 0.16 in4.1 mm
01:10 PM 41.2°F5.1°C 36.7°F2.6°C 84% 14.0 mph SW22.5 kmh SW 16.0 mph25.7 kmh 29.79 in1008.8 mb 0.00 in0.0 mm 0.00 in/hr0.0 mm/hr 0.16 in4.1 mm
01:15 PM 41.2°F5.1°C 36.7°F2.6°C 84% 12.0 mph SSW19.3 kmh SSW 15.0 mph24.1 kmh 29.78 in1008.5 mb 0.00 in0.0 mm 0.00 in/hr0.0 mm/hr 0.16 in4.1 mm
01:20 PM 41.4°F5.2°C 36.9°F2.7°C 84% 13.0 mph SSW20.9 kmh SSW 15.0 mph24.1 kmh 29.79 in1008.8 mb 0.00 in0.0 mm 0.00 in/hr0.0 mm/hr 0.16 in4.1 mm
01:25 PM 41.4°F5.2°C 36.9°F2.7°C 84% 13.0 mph SSW20.9 kmh SSW 15.0 mph24.1 kmh 29.78 in1008.5 mb 0.00 in0.0 mm 0.00 in/hr0.0 mm/hr 0.16 in4.1 mm
01:30 PM 41.6°F5.3°C 37.1°F2.8°C 84% 13.0 mph SSW20.9 kmh SSW 15.0 mph24.1 kmh 29.78 in1008.5 mb 0.00 in0.0 mm 0.00 in/hr0.0 mm/hr 0.16 in4.1 mm
01:35 PM 41.6°F5.3°C 37.1°F2.8°C 84% 15.0 mph S24.1 kmh S 17.0 mph27.4 kmh 29.78 in1008.5 mb 0.00 in0.0 mm 0.00 in/hr0.0 mm/hr 0.16 in4.1 mm
01:40 PM 41.6°F5.3°C 37.4°F3.0°C 85% 15.0 mph SW24.1 kmh SW 16.0 mph25.7 kmh 29.78 in1008.5 mb 0.00 in0.0 mm 0.00 in/hr0.0 mm/hr 0.16 in4.1 mm
01:45 PM 41.6°F5.3°C 37.4°F3.0°C 85% 16.0 mph SSW25.7 kmh SSW 17.0 mph27.4 kmh 29.78 in1008.5 mb 0.00 in0.0 mm 0.00 in/hr0.0 mm/hr 0.16 in4.1 mm
01:50 PM 41.6°F5.3°C 37.7°F3.2°C 86% 11.0 mph SSW17.7 kmh SSW 18.0 mph29.0 kmh 29.78 in1008.5 mb 0.00 in0.0 mm 0.00 in/hr0.0 mm/hr 0.16 in4.1 mm
01:55 PM 41.4°F5.2°C 37.5°F3.1°C 86% 17.0 mph SSW27.4 kmh SSW 20.0 mph32.2 kmh 29.78 in1008.5 mb 0.00 in0.0 mm 0.00 in/hr0.0 mm/hr 0.16 in4.1 mm
02:00 PM 41.3°F5.2°C 37.4°F3.0°C 86% 21.0 mph SSW33.8 kmh SSW 23.0 mph37.0 kmh 29.78 in1008.5 mb 0.00 in0.0 mm 0.00 in/hr0.0 mm/hr 0.16 in4.1 mm
02:05 PM 41.0°F5.0°C 37.1°F2.8°C 86% 19.0 mph SSW30.6 kmh SSW 23.0 mph37.0 kmh 29.78 in1008.5 mb 0.00 in0.0 mm 0.00 in/hr0.0 mm/hr 0.16 in4.1 mm
02:10 PM 40.9°F4.9°C 37.3°F2.9°C 87% 17.0 mph SW27.4 kmh SW 21.0 mph33.8 kmh 29.77 in1008.1 mb 0.00 in0.0 mm 0.00 in/hr0.0 mm/hr 0.16 in4.1 mm
02:15 PM 40.9°F4.9°C 37.3°F2.9°C 87% 18.0 mph SSW29.0 kmh SSW 21.0 mph33.8 kmh 29.77 in1008.1 mb 0.00 in0.0 mm 0.00 in/hr0.0 mm/hr 0.16 in4.1 mm
02:20 PM 40.9°F4.9°C 37.3°F2.9°C 87% 15.0 mph S24.1 kmh S 22.0 mph35.4 kmh 29.77 in1008.1 mb 0.00 in0.0 mm 0.00 in/hr0.0 mm/hr 0.16 in4.1 mm
02:25 PM 40.8°F4.9°C 37.2°F2.9°C 87% 15.0 mph SSW24.1 kmh SSW 21.0 mph33.8 kmh 29.77 in1008.1 mb 0.00 in0.0 mm 0.00 in/hr0.0 mm/hr 0.16 in4.1 mm
02:30 PM 40.8°F4.9°C 37.2°F2.9°C 87% 17.0 mph SSW27.4 kmh SSW 21.0 mph33.8 kmh 29.76 in1007.8 mb 0.00 in0.0 mm 0.00 in/hr0.0 mm/hr 0.16 in4.1 mm
02:35 PM 40.8°F4.9°C 37.2°F2.9°C 87% 16.0 mph SSW25.7 kmh SSW 18.0 mph29.0 kmh 29.76 in1007.8 mb 0.00 in0.0 mm 0.00 in/hr0.0 mm/hr 0.16 in4.1 mm
02:40 PM 40.8°F4.9°C 37.5°F3.1°C 88% 14.0 mph SSW22.5 kmh SSW 19.0 mph30.6 kmh 29.75 in1007.5 mb 0.00 in0.0 mm 0.00 in/hr0.0 mm/hr 0.16 in4.1 mm
02:45 PM 40.9°F4.9°C 37.3°F2.9°C 87% 15.0 mph SSW24.1 kmh SSW 16.0 mph25.7 kmh 29.75 in1007.5 mb 0.00 in0.0 mm 0.00 in/hr0.0 mm/hr 0.16 in4.1 mm
02:50 PM 41.0°F5.0°C 37.7°F3.2°C 88% 18.0 mph SW29.0 kmh SW 19.0 mph30.6 kmh 29.75 in1007.5 mb 0.00 in0.0 mm 0.00 in/hr0.0 mm/hr 0.16 in4.1 mm
02:55 PM 41.1°F5.1°C 37.8°F3.2°C 88% 13.0 mph SSW20.9 kmh SSW 21.0 mph33.8 kmh 29.75 in1007.5 mb 0.00 in0.0 mm 0.00 in/hr0.0 mm/hr 0.16 in4.1 mm
03:00 PM 41.2°F5.1°C 37.9°F3.3°C 88% 18.0 mph SSW29.0 kmh SSW 22.0 mph35.4 kmh 29.75 in1007.5 mb 0.00 in0.0 mm 0.00 in/hr0.0 mm/hr 0.16 in4.1 mm
03:05 PM 41.2°F5.1°C 37.9°F3.3°C 88% 18.0 mph SSW29.0 kmh SSW 21.0 mph33.8 kmh 29.75 in1007.5 mb 0.00 in0.0 mm 0.00 in/hr0.0 mm/hr 0.16 in4.1 mm
03:10 PM 41.3°F5.2°C 38.0°F3.3°C 88% 16.0 mph SSW25.7 kmh SSW 20.0 mph32.2 kmh 29.75 in1007.5 mb 0.00 in0.0 mm 0.00 in/hr0.0 mm/hr 0.16 in4.1 mm
03:15 PM 41.3°F5.2°C 38.0°F3.3°C 88% 17.0 mph SSW27.4 kmh SSW 19.0 mph30.6 kmh 29.74 in1007.1 mb 0.00 in0.0 mm 0.00 in/hr0.0 mm/hr 0.16 in4.1 mm
03:20 PM 41.4°F5.2°C 38.1°F3.4°C 88% 17.0 mph SSW27.4 kmh SSW 21.0 mph33.8 kmh 29.74 in1007.1 mb 0.00 in0.0 mm 0.00 in/hr0.0 mm/hr 0.16 in4.1 mm
03:25 PM 41.4°F5.2°C 38.1°F3.4°C 88% 13.0 mph SSW20.9 kmh SSW 17.0 mph27.4 kmh 29.73 in1006.8 mb 0.00 in0.0 mm 0.00 in/hr0.0 mm/hr 0.16 in4.1 mm
03:30 PM 41.4°F5.2°C 38.4°F3.6°C 89% 12.0 mph SSW19.3 kmh SSW 15.0 mph24.1 kmh 29.73 in1006.8 mb 0.00 in0.0 mm 0.00 in/hr0.0 mm/hr 0.16 in4.1 mm
03:35 PM 41.4°F5.2°C 38.4°F3.6°C 89% 12.0 mph SW19.3 kmh SW 15.0 mph24.1 kmh 29.73 in1006.8 mb 0.00 in0.0 mm 0.00 in/hr0.0 mm/hr 0.16 in4.1 mm
03:40 PM 41.5°F5.3°C 38.5°F3.6°C 89% 8.0 mph SW12.9 kmh SW 15.0 mph24.1 kmh 29.73 in1006.8 mb 0.00 in0.0 mm 0.00 in/hr0.0 mm/hr 0.16 in4.1 mm
03:46 PM 41.5°F5.3°C 38.7°F3.7°C 90% 12.0 mph SW19.3 kmh SW 14.0 mph22.5 kmh 29.73 in1006.8 mb 0.00 in0.0 mm 0.00 in/hr0.0 mm/hr 0.16 in4.1 mm
03:50 PM 41.6°F5.3°C 38.8°F3.8°C 90% 8.0 mph SW12.9 kmh SW 14.0 mph22.5 kmh 29.72 in1006.4 mb 0.00 in0.0 mm 0.00 in/hr0.0 mm/hr 0.16 in4.1 mm
03:55 PM 41.6°F5.3°C 38.8°F3.8°C 90% 8.0 mph S12.9 kmh S 13.0 mph20.9 kmh 29.72 in1006.4 mb 0.00 in0.0 mm 0.00 in/hr0.0 mm/hr 0.16 in4.1 mm
04:00 PM 41.7°F5.4°C 38.9°F3.8°C 90% 5.0 mph N8.0 kmh N 12.0 mph19.3 kmh 29.72 in1006.4 mb 0.00 in0.0 mm 0.00 in/hr0.0 mm/hr 0.16 in4.1 mm
04:05 PM 41.8°F5.4°C 39.0°F3.9°C 90% 5.0 mph W8.0 kmh W 13.0 mph20.9 kmh 29.71 in1006.1 mb 0.00 in0.0 mm 0.00 in/hr0.0 mm/hr 0.16 in4.1 mm
04:10 PM 41.8°F5.4°C 39.0°F3.9°C 90% 3.0 mph SSW4.8 kmh SSW 11.0 mph17.7 kmh 29.71 in1006.1 mb 0.00 in0.0 mm 0.00 in/hr0.0 mm/hr 0.16 in4.1 mm
04:15 PM 41.9°F5.5°C 39.4°F4.1°C 91% 10.0 mph WNW16.1 kmh WNW 13.0 mph20.9 kmh 29.71 in1006.1 mb 0.00 in0.0 mm 0.00 in/hr0.0 mm/hr 0.16 in4.1 mm
04:20 PM 42.0°F5.6°C 39.5°F4.2°C 91% 5.0 mph SSW8.0 kmh SSW 15.0 mph24.1 kmh 29.71 in1006.1 mb 0.00 in0.0 mm 0.00 in/hr0.0 mm/hr 0.16 in4.1 mm
04:25 PM 42.0°F5.6°C 39.5°F4.2°C 91% 11.0 mph SW17.7 kmh SW 12.0 mph19.3 kmh 29.70 in1005.8 mb 0.00 in0.0 mm 0.00 in/hr0.0 mm/hr 0.16 in4.1 mm
04:30 PM 42.0°F5.6°C 39.5°F4.2°C 91% 6.0 mph SE9.7 kmh SE 11.0 mph17.7 kmh 29.70 in1005.8 mb 0.00 in0.0 mm 0.00 in/hr0.0 mm/hr 0.16 in4.1 mm
04:35 PM 42.1°F5.6°C 39.6°F4.2°C 91% 6.0 mph ESE9.7 kmh ESE 10.0 mph16.1 kmh 29.70 in1005.8 mb 0.00 in0.0 mm 0.00 in/hr0.0 mm/hr 0.16 in4.1 mm
04:40 PM 42.1°F5.6°C 39.6°F4.2°C 91% 5.0 mph S8.0 kmh S 11.0 mph17.7 kmh 29.69 in1005.4 mb 0.00 in0.0 mm 0.00 in/hr0.0 mm/hr 0.16 in4.1 mm
04:45 PM 42.2°F5.7°C 39.7°F4.3°C 91% 9.0 mph SSE14.5 kmh SSE 11.0 mph17.7 kmh 29.69 in1005.4 mb 0.00 in0.0 mm 0.00 in/hr0.0 mm/hr 0.16 in4.1 mm
04:50 PM 42.2°F5.7°C 39.7°F4.3°C 91% 10.0 mph S16.1 kmh S 14.0 mph22.5 kmh 29.69 in1005.4 mb 0.00 in0.0 mm 0.00 in/hr0.0 mm/hr 0.16 in4.1 mm
04:55 PM 42.3°F5.7°C 39.8°F4.3°C 91% 4.0 mph SSE6.4 kmh SSE 14.0 mph22.5 kmh 29.69 in1005.4 mb 0.00 in0.0 mm 0.00 in/hr0.0 mm/hr 0.16 in4.1 mm
05:00 PM 42.5°F5.8°C 40.3°F4.6°C 92% 6.0 mph S9.7 kmh S 10.0 mph16.1 kmh 29.69 in1005.4 mb 0.00 in0.0 mm 0.00 in/hr0.0 mm/hr 0.16 in4.1 mm
05:05 PM 42.7°F5.9°C 40.5°F4.7°C 92% 5.0 mph NW8.0 kmh NW 12.0 mph19.3 kmh 29.69 in1005.4 mb 0.00 in0.0 mm 0.00 in/hr0.0 mm/hr 0.16 in4.1 mm
05:10 PM 42.8°F6.0°C 40.6°F4.8°C 92% 5.0 mph S8.0 kmh S 13.0 mph20.9 kmh 29.68 in1005.1 mb 0.00 in0.0 mm 0.00 in/hr0.0 mm/hr 0.16 in4.1 mm
05:15 PM 42.9°F6.1°C 40.7°F4.8°C 92% 7.0 mph SSW11.3 kmh SSW 15.0 mph24.1 kmh 29.68 in1005.1 mb 0.00 in0.0 mm 0.00 in/hr0.0 mm/hr 0.16 in4.1 mm
05:20 PM 43.0°F6.1°C 40.8°F4.9°C 92% 12.0 mph ENE19.3 kmh ENE 17.0 mph27.4 kmh 29.68 in1005.1 mb 0.00 in0.0 mm 0.00 in/hr0.0 mm/hr 0.16 in4.1 mm
05:25 PM 43.0°F6.1°C 40.5°F4.7°C 91% 12.0 mph S19.3 kmh S 25.0 mph40.2 kmh 29.68 in1005.1 mb 0.00 in0.0 mm 0.00 in/hr0.0 mm/hr 0.16 in4.1 mm
05:30 PM 42.8°F6.0°C 40.3°F4.6°C 91% 27.0 mph SSW43.5 kmh SSW 30.0 mph48.3 kmh 29.68 in1005.1 mb 0.00 in0.0 mm 0.00 in/hr0.0 mm/hr 0.16 in4.1 mm
05:35 PM 42.6°F5.9°C 40.1°F4.5°C 91% 20.0 mph SSW32.2 kmh SSW 29.0 mph46.7 kmh 29.67 in1004.7 mb 0.00 in0.0 mm 0.00 in/hr0.0 mm/hr 0.16 in4.1 mm
05:40 PM 42.5°F5.8°C 40.3°F4.6°C 92% 20.0 mph SSW32.2 kmh SSW 25.0 mph40.2 kmh 29.67 in1004.7 mb 0.00 in0.0 mm 0.00 in/hr0.0 mm/hr 0.16 in4.1 mm
05:45 PM 42.4°F5.8°C 40.2°F4.6°C 92% 24.0 mph SW38.6 kmh SW 26.0 mph41.8 kmh 29.66 in1004.4 mb 0.00 in0.0 mm 0.00 in/hr0.0 mm/hr 0.16 in4.1 mm
05:50 PM 42.4°F5.8°C 40.5°F4.7°C 93% 14.0 mph WSW22.5 kmh WSW 25.0 mph40.2 kmh 29.66 in1004.4 mb 0.01 in0.3 mm 0.12 in/hr3.0 mm/hr 0.17 in4.3 mm
05:55 PM 42.5°F5.8°C 40.6°F4.8°C 93% 16.0 mph S25.7 kmh S 25.0 mph40.2 kmh 29.65 in1004.1 mb 0.01 in0.3 mm 0.00 in/hr0.0 mm/hr 0.17 in4.3 mm
06:00 PM 42.5°F5.8°C 40.6°F4.8°C 93% 15.0 mph SSW24.1 kmh SSW 28.0 mph45.1 kmh 29.65 in1004.1 mb 0.01 in0.3 mm 0.00 in/hr0.0 mm/hr 0.17 in4.3 mm
06:05 PM 42.5°F5.8°C 40.8°F4.9°C 94% 24.0 mph SW38.6 kmh SW 26.0 mph41.8 kmh 29.65 in1004.1 mb 0.01 in0.3 mm 0.00 in/hr0.0 mm/hr 0.17 in4.3 mm
06:10 PM 42.6°F5.9°C 40.9°F4.9°C 94% 15.0 mph WSW24.1 kmh WSW 26.0 mph41.8 kmh 29.64 in1003.7 mb 0.01 in0.3 mm 0.00 in/hr0.0 mm/hr 0.17 in4.3 mm
06:15 PM 42.6°F5.9°C 40.9°F4.9°C 94% 18.0 mph SSW29.0 kmh SSW 24.0 mph38.6 kmh 29.64 in1003.7 mb 0.02 in0.5 mm 0.12 in/hr3.0 mm/hr 0.18 in4.6 mm
06:20 PM 42.6°F5.9°C 41.2°F5.1°C 95% 24.0 mph SSW38.6 kmh SSW 24.0 mph38.6 kmh 29.64 in1003.7 mb 0.02 in0.5 mm 0.00 in/hr0.0 mm/hr 0.18 in4.6 mm
06:25 PM 42.7°F5.9°C 41.3°F5.2°C 95% 10.0 mph SW16.1 kmh SW 24.0 mph38.6 kmh 29.63 in1003.4 mb 0.02 in0.5 mm 0.00 in/hr0.0 mm/hr 0.18 in4.6 mm
06:30 PM 42.7°F5.9°C 41.3°F5.2°C 95% 7.0 mph N11.3 kmh N 22.0 mph35.4 kmh 29.63 in1003.4 mb 0.02 in0.5 mm 0.00 in/hr0.0 mm/hr 0.18 in4.6 mm
06:35 PM 42.8°F6.0°C 41.4°F5.2°C 95% 15.0 mph SW24.1 kmh SW 20.0 mph32.2 kmh 29.62 in1003.0 mb 0.02 in0.5 mm 0.00 in/hr0.0 mm/hr 0.18 in4.6 mm
06:40 PM 42.8°F6.0°C 41.4°F5.2°C 95% 10.0 mph S16.1 kmh S 23.0 mph37.0 kmh 29.62 in1003.0 mb 0.02 in0.5 mm 0.00 in/hr0.0 mm/hr 0.18 in4.6 mm
06:45 PM 42.8°F6.0°C 41.4°F5.2°C 95% 11.0 mph NE17.7 kmh NE 22.0 mph35.4 kmh 29.61 in1002.7 mb 0.02 in0.5 mm 0.00 in/hr0.0 mm/hr 0.18 in4.6 mm
06:50 PM 42.9°F6.1°C 41.5°F5.3°C 95% 13.0 mph SSW20.9 kmh SSW 20.0 mph32.2 kmh 29.61 in1002.7 mb 0.01 in0.3 mm 0.00 in/hr0.0 mm/hr 0.18 in4.6 mm
06:55 PM 42.9°F6.1°C 41.5°F5.3°C 95% 18.0 mph SW29.0 kmh SW 23.0 mph37.0 kmh 29.60 in1002.4 mb 0.01 in0.3 mm 0.00 in/hr0.0 mm/hr 0.18 in4.6 mm
07:00 PM 42.9°F6.1°C 41.8°F5.4°C 96% 19.0 mph SW30.6 kmh SW 23.0 mph37.0 kmh 29.60 in1002.4 mb 0.01 in0.3 mm 0.00 in/hr0.0 mm/hr 0.18 in4.6 mm
07:05 PM 43.0°F6.1°C 41.9°F5.5°C 96% 20.0 mph SW32.2 kmh SW 24.0 mph38.6 kmh 29.60 in1002.4 mb 0.01 in0.3 mm 0.00 in/hr0.0 mm/hr 0.18 in4.6 mm
07:10 PM 43.1°F6.2°C 42.0°F5.6°C 96% 21.0 mph SSW33.8 kmh SSW 25.0 mph40.2 kmh 29.60 in1002.4 mb 0.01 in0.3 mm 0.00 in/hr0.0 mm/hr 0.18 in4.6 mm
07:15 PM 43.1°F6.2°C 42.0°F5.6°C 96% 22.0 mph SSW35.4 kmh SSW 25.0 mph40.2 kmh 29.59 in1002.0 mb 0.00 in0.0 mm 0.00 in/hr0.0 mm/hr 0.18 in4.6 mm
07:20 PM 43.1°F6.2°C 42.0°F5.6°C 96% 21.0 mph S33.8 kmh S 25.0 mph40.2 kmh 29.58 in1001.7 mb 0.00 in0.0 mm 0.00 in/hr0.0 mm/hr 0.18 in4.6 mm
07:25 PM 43.2°F6.2°C 42.1°F5.6°C 96% 19.0 mph SW30.6 kmh SW 24.0 mph38.6 kmh 29.58 in1001.7 mb 0.00 in0.0 mm 0.00 in/hr0.0 mm/hr 0.18 in4.6 mm
07:30 PM 43.3°F6.3°C 42.2°F5.7°C 96% 21.0 mph SW33.8 kmh SW 25.0 mph40.2 kmh 29.58 in1001.7 mb 0.00 in0.0 mm 0.00 in/hr0.0 mm/hr 0.18 in4.6 mm
07:35 PM 43.4°F6.3°C 42.3°F5.7°C 96% 18.0 mph S29.0 kmh S 25.0 mph40.2 kmh 29.58 in1001.7 mb 0.00 in0.0 mm 0.00 in/hr0.0 mm/hr 0.18 in4.6 mm
07:40 PM 43.5°F6.4°C 42.4°F5.8°C 96% 21.0 mph SSW33.8 kmh SSW 24.0 mph38.6 kmh 29.58 in1001.7 mb 0.00 in0.0 mm 0.00 in/hr0.0 mm/hr 0.18 in4.6 mm
07:45 PM 43.6°F6.4°C 42.5°F5.8°C 96% 23.0 mph SW37.0 kmh SW 27.0 mph43.5 kmh 29.57 in1001.4 mb 0.00 in0.0 mm 0.00 in/hr0.0 mm/hr 0.18 in4.6 mm
07:50 PM 43.6°F6.4°C 42.5°F5.8°C 96% 18.0 mph SSW29.0 kmh SSW 25.0 mph40.2 kmh 29.57 in1001.4 mb 0.00 in0.0 mm 0.00 in/hr0.0 mm/hr 0.18 in4.6 mm
07:55 PM 43.7°F6.5°C 42.6°F5.9°C 96% 18.0 mph SW29.0 kmh SW 25.0 mph40.2 kmh 29.56 in1001.0 mb 0.00 in0.0 mm 0.00 in/hr0.0 mm/hr 0.18 in4.6 mm
08:00 PM 43.7°F6.5°C 42.6°F5.9°C 96% 17.0 mph WSW27.4 kmh WSW 25.0 mph40.2 kmh 29.56 in1001.0 mb 0.00 in0.0 mm 0.00 in/hr0.0 mm/hr 0.18 in4.6 mm
08:05 PM 43.8°F6.6°C 42.7°F5.9°C 96% 25.0 mph SSW40.2 kmh SSW 25.0 mph40.2 kmh 29.56 in1001.0 mb 0.00 in0.0 mm 0.00 in/hr0.0 mm/hr 0.18 in4.6 mm
08:10 PM 44.0°F6.7°C 42.9°F6.1°C 96% 24.0 mph SSW38.6 kmh SSW 28.0 mph45.1 kmh 29.56 in1001.0 mb 0.00 in0.0 mm 0.00 in/hr0.0 mm/hr 0.18 in4.6 mm
08:15 PM 44.1°F6.7°C 43.0°F6.1°C 96% 24.0 mph SSW38.6 kmh SSW 29.0 mph46.7 kmh 29.55 in1000.7 mb 0.00 in0.0 mm 0.00 in/hr0.0 mm/hr 0.18 in4.6 mm
08:20 PM 44.1°F6.7°C 43.0°F6.1°C 96% 21.0 mph SW33.8 kmh SW 29.0 mph46.7 kmh 29.55 in1000.7 mb 0.00 in0.0 mm 0.00 in/hr0.0 mm/hr 0.18 in4.6 mm
08:25 PM 44.2°F6.8°C 43.1°F6.2°C 96% 23.0 mph SSW37.0 kmh SSW 26.0 mph41.8 kmh 29.54 in1000.3 mb 0.00 in0.0 mm 0.00 in/hr0.0 mm/hr 0.18 in4.6 mm
08:30 PM 44.2°F6.8°C 43.1°F6.2°C 96% 22.0 mph SSW35.4 kmh SSW 25.0 mph40.2 kmh 29.55 in1000.7 mb 0.00 in0.0 mm 0.00 in/hr0.0 mm/hr 0.18 in4.6 mm
08:35 PM 44.2°F6.8°C 43.1°F6.2°C 96% 21.0 mph SSW33.8 kmh SSW 27.0 mph43.5 kmh 29.55 in1000.7 mb 0.00 in0.0 mm 0.00 in/hr0.0 mm/hr 0.18 in4.6 mm
08:40 PM 44.3°F6.8°C 43.2°F6.2°C 96% 20.0 mph SSW32.2 kmh SSW 24.0 mph38.6 kmh 29.54 in1000.3 mb 0.00 in0.0 mm 0.00 in/hr0.0 mm/hr 0.18 in4.6 mm
08:45 PM 44.3°F6.8°C 43.2°F6.2°C 96% 22.0 mph SW35.4 kmh SW 23.0 mph37.0 kmh 29.55 in1000.7 mb 0.00 in0.0 mm 0.00 in/hr0.0 mm/hr 0.18 in4.6 mm
08:50 PM 44.3°F6.8°C 43.2°F6.2°C 96% 20.0 mph SW32.2 kmh SW 22.0 mph35.4 kmh 29.54 in1000.3 mb 0.00 in0.0 mm 0.00 in/hr0.0 mm/hr 0.18 in4.6 mm
08:55 PM 44.3°F6.8°C 43.2°F6.2°C 96% 18.0 mph SSW29.0 kmh SSW 24.0 mph38.6 kmh 29.54 in1000.3 mb 0.00 in0.0 mm 0.00 in/hr0.0 mm/hr 0.18 in4.6 mm
09:00 PM 44.3°F6.8°C 43.2°F6.2°C 96% 17.0 mph SW27.4 kmh SW 21.0 mph33.8 kmh 29.54 in1000.3 mb 0.00 in0.0 mm 0.00 in/hr0.0 mm/hr 0.18 in4.6 mm
09:05 PM 44.2°F6.8°C 43.1°F6.2°C 96% 16.0 mph SW25.7 kmh SW 22.0 mph35.4 kmh 29.53 in1000.0 mb 0.00 in0.0 mm 0.00 in/hr0.0 mm/hr 0.18 in4.6 mm
09:10 PM 44.2°F6.8°C 43.1°F6.2°C 96% 17.0 mph SW27.4 kmh SW 19.0 mph30.6 kmh 29.53 in1000.0 mb 0.00 in0.0 mm 0.00 in/hr0.0 mm/hr 0.18 in4.6 mm
09:15 PM 44.2°F6.8°C 43.1°F6.2°C 96% 19.0 mph SSW30.6 kmh SSW 20.0 mph32.2 kmh 29.53 in1000.0 mb 0.00 in0.0 mm 0.00 in/hr0.0 mm/hr 0.18 in4.6 mm
09:20 PM 44.3°F6.8°C 43.2°F6.2°C 96% 20.0 mph SW32.2 kmh SW 22.0 mph35.4 kmh 29.52 in999.7 mb 0.00 in0.0 mm 0.00 in/hr0.0 mm/hr 0.18 in4.6 mm
09:25 PM 44.3°F6.8°C 43.2°F6.2°C 96% 15.0 mph SW24.1 kmh SW 22.0 mph35.4 kmh 29.53 in1000.0 mb 0.00 in0.0 mm 0.00 in/hr0.0 mm/hr 0.18 in4.6 mm
09:30 PM 44.3°F6.8°C 43.2°F6.2°C 96% 15.0 mph SSW24.1 kmh SSW 21.0 mph33.8 kmh 29.53 in1000.0 mb 0.00 in0.0 mm 0.00 in/hr0.0 mm/hr 0.18 in4.6 mm
09:35 PM 44.3°F6.8°C 43.2°F6.2°C 96% 16.0 mph SSW25.7 kmh SSW 19.0 mph30.6 kmh 29.52 in999.7 mb 0.00 in0.0 mm 0.00 in/hr0.0 mm/hr 0.18 in4.6 mm
09:40 PM 44.4°F6.9°C 43.3°F6.3°C 96% 15.0 mph SW24.1 kmh SW 20.0 mph32.2 kmh 29.52 in999.7 mb 0.00 in0.0 mm 0.00 in/hr0.0 mm/hr 0.18 in4.6 mm
09:45 PM 44.3°F6.8°C 43.2°F6.2°C 96% 16.0 mph SW25.7 kmh SW 19.0 mph30.6 kmh 29.52 in999.7 mb 0.00 in0.0 mm 0.00 in/hr0.0 mm/hr 0.18 in4.6 mm
09:50 PM 44.2°F6.8°C 43.1°F6.2°C 96% 15.0 mph SSW24.1 kmh SSW 19.0 mph30.6 kmh 29.51 in999.3 mb 0.00 in0.0 mm 0.00 in/hr0.0 mm/hr 0.18 in4.6 mm
09:55 PM 44.2°F6.8°C 43.1°F6.2°C 96% 15.0 mph SW24.1 kmh SW 18.0 mph29.0 kmh 29.51 in999.3 mb 0.00 in0.0 mm 0.00 in/hr0.0 mm/hr 0.18 in4.6 mm
10:00 PM 44.3°F6.8°C 43.2°F6.2°C 96% 14.0 mph SW22.5 kmh SW 19.0 mph30.6 kmh 29.50 in999.0 mb 0.00 in0.0 mm 0.00 in/hr0.0 mm/hr 0.18 in4.6 mm
10:05 PM 44.3°F6.8°C 43.2°F6.2°C 96% 15.0 mph SW24.1 kmh SW 19.0 mph30.6 kmh 29.50 in999.0 mb 0.00 in0.0 mm 0.00 in/hr0.0 mm/hr 0.18 in4.6 mm
10:10 PM 44.5°F6.9°C 43.4°F6.3°C 96% 16.0 mph SSW25.7 kmh SSW 21.0 mph33.8 kmh 29.49 in998.6 mb 0.00 in0.0 mm 0.00 in/hr0.0 mm/hr 0.18 in4.6 mm
10:15 PM 44.5°F6.9°C 43.4°F6.3°C 96% 17.0 mph SSW27.4 kmh SSW 19.0 mph30.6 kmh 29.49 in998.6 mb 0.00 in0.0 mm 0.00 in/hr0.0 mm/hr 0.18 in4.6 mm
10:20 PM 44.6°F7.0°C 43.5°F6.4°C 96% 13.0 mph SW20.9 kmh SW 18.0 mph29.0 kmh 29.49 in998.6 mb 0.00 in0.0 mm 0.00 in/hr0.0 mm/hr 0.18 in4.6 mm
10:25 PM 44.5°F6.9°C 43.4°F6.3°C 96% 12.0 mph S19.3 kmh S 17.0 mph27.4 kmh 29.49 in998.6 mb 0.00 in0.0 mm 0.00 in/hr0.0 mm/hr 0.18 in4.6 mm
10:30 PM 44.5°F6.9°C 43.4°F6.3°C 96% 12.0 mph SSW19.3 kmh SSW 17.0 mph27.4 kmh 29.49 in998.6 mb 0.00 in0.0 mm 0.00 in/hr0.0 mm/hr 0.18 in4.6 mm
10:35 PM 44.6°F7.0°C 43.5°F6.4°C 96% 17.0 mph SSW27.4 kmh SSW 18.0 mph29.0 kmh 29.48 in998.3 mb 0.00 in0.0 mm 0.00 in/hr0.0 mm/hr 0.18 in4.6 mm
10:40 PM 44.6°F7.0°C 43.5°F6.4°C 96% 15.0 mph SW24.1 kmh SW 19.0 mph30.6 kmh 29.48 in998.3 mb 0.00 in0.0 mm 0.00 in/hr0.0 mm/hr 0.18 in4.6 mm
10:45 PM 44.7°F7.1°C 43.6°F6.4°C 96% 12.0 mph SSW19.3 kmh SSW 16.0 mph25.7 kmh 29.48 in998.3 mb 0.00 in0.0 mm 0.00 in/hr0.0 mm/hr 0.18 in4.6 mm
10:50 PM 44.6°F7.0°C 43.5°F6.4°C 96% 11.0 mph SSW17.7 kmh SSW 16.0 mph25.7 kmh 29.47 in998.0 mb 0.00 in0.0 mm 0.00 in/hr0.0 mm/hr 0.18 in4.6 mm
10:55 PM 44.6°F7.0°C 43.5°F6.4°C 96% 13.0 mph SW20.9 kmh SW 16.0 mph25.7 kmh 29.47 in998.0 mb 0.00 in0.0 mm 0.00 in/hr0.0 mm/hr 0.18 in4.6 mm
11:00 PM 44.7°F7.1°C 43.6°F6.4°C 96% 11.0 mph SW17.7 kmh SW 15.0 mph24.1 kmh 29.47 in998.0 mb 0.00 in0.0 mm 0.00 in/hr0.0 mm/hr 0.18 in4.6 mm
11:05 PM 44.8°F7.1°C 43.7°F6.5°C 96% 14.0 mph SSW22.5 kmh SSW 16.0 mph25.7 kmh 29.46 in997.6 mb 0.00 in0.0 mm 0.00 in/hr0.0 mm/hr 0.18 in4.6 mm
11:10 PM 44.9°F7.2°C 43.8°F6.6°C 96% 15.0 mph SSW24.1 kmh SSW 16.0 mph25.7 kmh 29.46 in997.6 mb 0.00 in0.0 mm 0.00 in/hr0.0 mm/hr 0.18 in4.6 mm
11:15 PM 45.0°F7.2°C 43.9°F6.6°C 96% 15.0 mph SSW24.1 kmh SSW 17.0 mph27.4 kmh 29.46 in997.6 mb 0.00 in0.0 mm 0.00 in/hr0.0 mm/hr 0.18 in4.6 mm
11:20 PM 45.2°F7.3°C 44.1°F6.7°C 96% 17.0 mph SSW27.4 kmh SSW 21.0 mph33.8 kmh 29.45 in997.3 mb 0.00 in0.0 mm 0.00 in/hr0.0 mm/hr 0.18 in4.6 mm
11:25 PM 45.2°F7.3°C 44.1°F6.7°C 96% 15.0 mph SSW24.1 kmh SSW 18.0 mph29.0 kmh 29.45 in997.3 mb 0.00 in0.0 mm 0.00 in/hr0.0 mm/hr 0.18 in4.6 mm
11:30 PM 45.4°F7.4°C 44.3°F6.8°C 96% 19.0 mph SSW30.6 kmh SSW 19.0 mph30.6 kmh 29.45 in997.3 mb 0.00 in0.0 mm 0.00 in/hr0.0 mm/hr 0.18 in4.6 mm
11:35 PM 45.4°F7.4°C 44.3°F6.8°C 96% 15.0 mph SSW24.1 kmh SSW 20.0 mph32.2 kmh 29.44 in997.0 mb 0.00 in0.0 mm 0.00 in/hr0.0 mm/hr 0.18 in4.6 mm
11:40 PM 45.5°F7.5°C 44.4°F6.9°C 96% 17.0 mph SW27.4 kmh SW 21.0 mph33.8 kmh 29.44 in997.0 mb 0.00 in0.0 mm 0.00 in/hr0.0 mm/hr 0.18 in4.6 mm
11:45 PM 45.6°F7.6°C 44.5°F6.9°C 96% 18.0 mph SSW29.0 kmh SSW 22.0 mph35.4 kmh 29.43 in996.6 mb 0.00 in0.0 mm 0.00 in/hr0.0 mm/hr 0.18 in4.6 mm
11:50 PM 45.8°F7.7°C 44.7°F7.1°C 96% 23.0 mph SSW37.0 kmh SSW 25.0 mph40.2 kmh 29.43 in996.6 mb 0.00 in0.0 mm 0.00 in/hr0.0 mm/hr 0.18 in4.6 mm
11:55 PM 45.9°F7.7°C 44.8°F7.1°C 96% 24.0 mph SSW38.6 kmh SSW 24.0 mph38.6 kmh 29.43 in996.6 mb 0.00 in0.0 mm 0.00 in/hr0.0 mm/hr 0.18 in4.6 mm